Kamisuku Airport


Codes: FZOC/
Name: Kamisuku Airport
City: Kalima
Country: Congo [DRC]
Elevation: 0 ft.

Photos at Kamisuku Airport


   Photos courtesy of SpottingLog. You can add your own sightings and photos by signing up for a free trial today.



No photos found.

Weather at Kamisuku Airport


Time (UTC)DescriptionTempratureWindCloud coverageVisibilityPressureHumidity
19-Apr-2024 03:00Light Rain20°C0 mph, E100%10000m1011hPa99%
19-Apr-2024 06:00Light Rain21°C0 mph, NE100%10000m1011hPa97%
19-Apr-2024 09:00Overcast Clouds28°C2 mph, N99%10000m1011hPa69%
19-Apr-2024 12:00Overcast Clouds34°C2 mph, NW100%10000m1007hPa43%
19-Apr-2024 15:00Overcast Clouds30°C2 mph, W100%10000m1006hPa66%
19-Apr-2024 18:00Light Rain25°C2 mph, S98%10000m1008hPa79%
19-Apr-2024 21:00Light Rain22°C2 mph, SE100%10000m1010hPa99%
20-Apr-2024 00:00Light Rain21°C2 mph, SE100%10000m1009hPa99%
20-Apr-2024 03:00Light Rain21°C0 mph, E100%10000m1010hPa99%
20-Apr-2024 06:00Light Rain22°C0 mph, NE100%10000m1012hPa98%
20-Apr-2024 09:00Overcast Clouds29°C4 mph, N100%10000m1011hPa62%
20-Apr-2024 12:00Light Rain28°C4 mph, N93%10000m1008hPa82%
20-Apr-2024 15:00Moderate Rain24°C0 mph, NW100%4931m1009hPa95%
20-Apr-2024 18:00Moderate Rain22°C2 mph, SW100%10000m1011hPa100%
20-Apr-2024 21:00Light Rain22°C2 mph, SE100%10000m1010hPa99%
21-Apr-2024 00:00Overcast Clouds21°C2 mph, E100%10000m1008hPa99%
21-Apr-2024 03:00Overcast Clouds21°C2 mph, SE100%10000m1009hPa99%
21-Apr-2024 06:00Overcast Clouds22°C2 mph, E99%10000m1011hPa96%
21-Apr-2024 09:00Overcast Clouds28°C0 mph, NW92%10000m1011hPa69%
21-Apr-2024 12:00Overcast Clouds30°C2 mph, N86%10000m1007hPa57%
21-Apr-2024 15:00Broken Clouds29°C2 mph, NE60%10000m1006hPa66%
21-Apr-2024 18:00Light Rain24°C2 mph, SE48%10000m1008hPa87%
21-Apr-2024 21:00Scattered Clouds23°C2 mph, SE32%10000m1009hPa91%
22-Apr-2024 00:00Broken Clouds22°C2 mph, SE62%10000m1008hPa93%
22-Apr-2024 03:00Overcast Clouds21°C2 mph, SE93%10000m1009hPa93%
22-Apr-2024 06:00Broken Clouds25°C2 mph, E73%10000m1010hPa78%
22-Apr-2024 09:00Broken Clouds33°C2 mph, E55%10000m1009hPa46%
22-Apr-2024 12:00Broken Clouds36°C2 mph, E63%10000m1005hPa36%
22-Apr-2024 15:00Scattered Clouds32°C2 mph, N30%10000m1004hPa55%
22-Apr-2024 18:00Light Rain25°C2 mph, SE48%10000m1006hPa76%
22-Apr-2024 21:00Light Rain23°C2 mph, SE98%10000m1009hPa90%
23-Apr-2024 00:00Light Rain22°C2 mph, S98%10000m1007hPa94%
23-Apr-2024 03:00Overcast Clouds21°C2 mph, SE97%10000m1009hPa97%
23-Apr-2024 06:00Overcast Clouds24°C0 mph, E97%10000m1010hPa85%
23-Apr-2024 09:00Overcast Clouds31°C0 mph, S99%10000m1009hPa57%
23-Apr-2024 12:00Light Rain26°C2 mph, N99%10000m1007hPa82%
23-Apr-2024 15:00Overcast Clouds27°C0 mph, NE100%10000m1006hPa82%
23-Apr-2024 18:00Light Rain23°C4 mph, SE100%10000m1009hPa97%
23-Apr-2024 21:00Light Rain21°C2 mph, E100%10000m1010hPa99%
24-Apr-2024 00:00Light Rain21°C2 mph, E100%10000m1008hPa99%